createdAt,value
2018-03-22T00:02:22.852Z,87.20
2018-03-22T00:04:50.411Z,87.30
2018-03-22T00:07:17.944Z,88.00
2018-03-22T00:09:45.502Z,87.70
2018-03-22T00:12:13.046Z,88.00
2018-03-22T00:14:41.349Z,88.00
2018-03-22T00:17:08.887Z,87.90
2018-03-22T00:19:37.187Z,88.10
2018-03-22T00:22:04.728Z,88.10
2018-03-22T00:24:32.281Z,87.00
2018-03-22T00:27:00.594Z,86.70
2018-03-22T00:29:28.152Z,86.80
2018-03-22T00:31:55.705Z,87.40
2018-03-22T00:34:23.248Z,86.60
2018-03-22T00:36:50.788Z,86.50
2018-03-22T00:39:19.132Z,88.60
2018-03-22T00:41:46.624Z,88.50
2018-03-22T00:44:14.939Z,89.50
2018-03-22T00:46:42.480Z,89.50
2018-03-22T00:49:10.032Z,89.90
2018-03-22T00:51:37.573Z,90.30
2018-03-22T00:54:05.880Z,89.00
2018-03-22T00:56:33.402Z,88.90
2018-03-22T00:59:00.945Z,87.50
2018-03-22T01:01:28.463Z,86.80
2018-03-22T01:03:56.006Z,86.90
2018-03-22T01:06:23.548Z,86.60
2018-03-22T01:08:51.854Z,87.40
2018-03-22T01:11:19.405Z,87.40
2018-03-22T01:13:46.937Z,87.60
2018-03-22T01:16:15.254Z,89.70
2018-03-22T01:18:42.773Z,89.70
2018-03-22T01:21:11.083Z,89.00
2018-03-22T01:23:38.606Z,88.90
2018-03-22T01:26:06.955Z,89.30
2018-03-22T01:28:34.482Z,89.30
2018-03-22T01:31:02.026Z,88.90
2018-03-22T01:33:29.568Z,86.90
2018-03-22T01:35:57.877Z,86.30
2018-03-22T01:38:25.427Z,86.30
2018-03-22T01:40:52.953Z,85.80
2018-03-22T01:43:20.511Z,86.60
2018-03-22T01:45:48.038Z,87.10
2018-03-22T01:48:15.588Z,87.00
2018-03-22T01:50:43.130Z,87.10
2018-03-22T01:53:13.639Z,86.60
2018-03-22T01:55:41.960Z,86.30
2018-03-22T01:58:09.500Z,86.20
2018-03-22T02:00:37.061Z,86.40
2018-03-22T02:03:04.589Z,86.80
2018-03-22T02:05:32.925Z,86.50
2018-03-22T02:08:00.453Z,86.50
2018-03-22T02:10:28.001Z,86.00
2018-03-22T02:12:55.538Z,86.50
2018-03-22T02:15:23.866Z,85.70
2018-03-22T02:17:51.384Z,85.70
2018-03-22T02:20:19.702Z,85.90
2018-03-22T02:22:47.230Z,85.90
2018-03-22T02:25:14.771Z,85.90
2018-03-22T02:27:43.069Z,86.30
2018-03-22T02:30:10.623Z,86.20
2018-03-22T02:32:38.159Z,86.90
2018-03-22T02:35:06.459Z,87.60
2018-03-22T02:37:34.008Z,87.60
2018-03-22T02:40:02.307Z,86.60
2018-03-22T02:42:29.846Z,86.60
2018-03-22T02:44:58.157Z,88.00
2018-03-22T02:47:25.686Z,87.40
2018-03-22T02:49:54.007Z,88.60
2018-03-22T02:52:21.536Z,88.70
2018-03-22T02:54:49.077Z,88.90
2018-03-22T02:57:17.358Z,88.50
2018-03-22T02:59:44.897Z,88.50
2018-03-22T03:02:13.196Z,87.90
2018-03-22T03:04:40.772Z,87.90
2018-03-22T03:07:08.323Z,87.60
2018-03-22T03:09:35.844Z,86.90
2018-03-22T03:12:03.392Z,87.00
2018-03-22T03:14:30.929Z,87.50
2018-03-22T03:16:58.481Z,87.90
2018-03-22T03:19:26.027Z,87.60
2018-03-22T03:21:53.572Z,86.60
2018-03-22T03:24:21.095Z,86.90
2018-03-22T03:26:48.646Z,86.60
2018-03-22T03:29:16.172Z,86.50
2018-03-22T03:31:43.695Z,85.70
2018-03-22T03:34:12.001Z,85.80
2018-03-22T03:36:39.531Z,85.80
2018-03-22T03:39:07.093Z,87.00
2018-03-22T03:41:35.492Z,87.20
2018-03-22T03:44:03.033Z,87.30
2018-03-22T03:46:31.317Z,86.10
2018-03-22T03:48:58.863Z,86.10
2018-03-22T03:51:27.159Z,86.20
2018-03-22T03:53:54.734Z,86.20
2018-03-22T03:56:22.267Z,86.80
2018-03-22T03:58:50.580Z,86.30
2018-03-22T04:01:18.129Z,86.30
2018-03-22T04:03:45.651Z,86.50
2018-03-22T04:06:13.966Z,87.50
2018-03-22T04:08:41.482Z,87.50
2018-03-22T04:11:09.808Z,87.90
2018-03-22T04:13:37.351Z,87.90
2018-03-22T04:16:04.915Z,87.40
2018-03-22T04:18:32.449Z,86.80
2018-03-22T04:21:00.747Z,85.50
2018-03-22T04:23:28.290Z,85.50
2018-03-22T04:25:55.818Z,86.90
2018-03-22T04:28:23.366Z,87.60
2018-03-22T04:30:50.894Z,87.90
2018-03-22T04:33:18.434Z,88.00
2018-03-22T04:35:45.981Z,87.40
2018-03-22T04:38:14.304Z,86.40
2018-03-22T04:40:41.836Z,86.40
2018-03-22T04:43:09.370Z,87.50
2018-03-22T04:45:37.682Z,90.00
2018-03-22T04:48:05.213Z,90.00
2018-03-22T04:50:32.763Z,89.60
2018-03-22T04:53:01.063Z,90.00
2018-03-22T04:55:28.612Z,90.00
2018-03-22T04:57:56.137Z,90.20
2018-03-22T05:00:23.705Z,89.80
2018-03-22T05:02:51.240Z,89.80
2018-03-22T05:05:18.782Z,89.90
2018-03-22T05:07:46.307Z,89.40
2018-03-22T05:10:13.869Z,88.30
2018-03-22T05:12:41.423Z,87.40
2018-03-22T05:15:08.955Z,86.70
2018-03-22T05:17:36.488Z,87.00
2018-03-22T05:20:04.007Z,87.30
2018-03-22T05:22:31.549Z,87.10
2018-03-22T05:24:59.898Z,86.80
2018-03-22T05:27:27.430Z,86.80
2018-03-22T05:29:54.983Z,86.80
2018-03-22T05:32:22.529Z,86.30
2018-03-22T05:34:50.077Z,86.70
2018-03-22T05:37:18.089Z,86.90
2018-03-22T05:39:45.690Z,87.00
2018-03-22T05:42:13.995Z,88.70
2018-03-22T05:44:41.559Z,88.70
2018-03-22T05:47:09.101Z,88.60
2018-03-22T05:49:36.663Z,88.80
2018-03-22T05:52:05.050Z,88.20
2018-03-22T05:54:32.874Z,87.70
2018-03-22T05:57:00.448Z,85.50
2018-03-22T05:59:28.831Z,82.90
2018-03-22T06:01:57.139Z,81.50
2018-03-22T06:04:24.652Z,81.50
2018-03-22T06:06:52.186Z,79.90
2018-03-22T06:09:19.707Z,78.30
2018-03-22T06:11:47.256Z,77.40
2018-03-22T06:14:14.782Z,76.90
2018-03-22T06:16:42.346Z,76.20
2018-03-22T06:19:09.884Z,74.80
2018-03-22T06:21:37.426Z,74.50
2018-03-22T06:24:04.976Z,74.20
2018-03-22T06:26:32.511Z,74.30
2018-03-22T06:29:00.834Z,72.80
2018-03-22T06:31:28.377Z,72.80
2018-03-22T06:33:55.921Z,73.10
2018-03-22T06:36:23.461Z,72.70
2018-03-22T06:38:51.034Z,72.30
2018-03-22T06:41:18.554Z,71.90
2018-03-22T06:43:46.115Z,71.20
2018-03-22T06:46:13.652Z,70.80
2018-03-22T06:48:41.169Z,69.90
2018-03-22T06:51:08.722Z,68.90
2018-03-22T06:53:36.265Z,69.10
2018-03-22T06:56:04.592Z,67.50
2018-03-22T06:58:32.116Z,67.50
2018-03-22T07:00:59.656Z,67.40
2018-03-22T07:03:27.942Z,65.00
2018-03-22T07:05:56.259Z,66.50
2018-03-22T07:08:23.851Z,67.00
2018-03-22T07:10:51.383Z,64.80
2018-03-22T07:13:18.928Z,66.50
2018-03-22T07:15:46.465Z,66.20
2018-03-22T07:18:14.021Z,65.40
2018-03-22T07:20:41.656Z,65.00
2018-03-22T07:23:09.204Z,64.60
2018-03-22T07:25:36.740Z,62.10
2018-03-22T07:28:04.282Z,60.40
2018-03-22T07:30:31.824Z,59.10
2018-03-22T07:32:59.405Z,57.20
2018-03-22T07:35:26.924Z,55.40
2018-03-22T07:37:55.209Z,56.60
2018-03-22T07:40:23.509Z,54.50
2018-03-22T07:42:56.716Z,54.50
2018-03-22T07:45:24.257Z,53.20
2018-03-22T07:47:51.791Z,51.30
2018-03-22T07:50:20.101Z,49.70
2018-03-22T07:52:47.644Z,49.80
2018-03-22T07:55:15.199Z,50.50
2018-03-22T07:57:42.740Z,50.80
2018-03-22T08:00:11.036Z,49.00
2018-03-22T08:02:38.575Z,48.90
2018-03-22T08:05:06.853Z,47.30
2018-03-22T08:07:35.171Z,48.00
2018-03-22T08:10:02.713Z,48.00
2018-03-22T08:12:30.244Z,47.80
2018-03-22T08:14:58.540Z,46.70
2018-03-22T08:17:26.084Z,46.70
2018-03-22T08:19:54.376Z,46.50
2018-03-22T08:22:21.940Z,46.50
2018-03-22T08:24:49.482Z,46.90
2018-03-22T08:27:17.762Z,47.80
2018-03-22T08:29:46.058Z,48.00
2018-03-22T08:32:13.591Z,47.90
2018-03-22T08:34:41.916Z,48.10
2018-03-22T08:37:09.443Z,48.00
2018-03-22T08:39:36.979Z,48.00
2018-03-22T08:42:04.499Z,48.00
2018-03-22T08:44:32.068Z,48.50
2018-03-22T08:46:59.589Z,47.70
2018-03-22T08:49:27.111Z,49.20
2018-03-22T08:51:54.656Z,48.50
2018-03-22T08:54:22.175Z,48.60
2018-03-22T08:56:49.718Z,49.70
2018-03-22T08:59:17.238Z,48.40
2018-03-22T09:01:44.784Z,46.80
2018-03-22T09:04:12.315Z,48.80
2018-03-22T09:06:40.648Z,49.30
2018-03-22T09:09:08.946Z,50.40
2018-03-22T09:11:36.515Z,50.30
2018-03-22T09:14:04.059Z,49.50
2018-03-22T09:16:31.599Z,48.40
2018-03-22T09:18:59.906Z,45.80
2018-03-22T09:21:27.503Z,45.80
2018-03-22T09:23:55.046Z,44.90
2018-03-22T09:26:22.580Z,42.70
2018-03-22T09:28:50.134Z,42.50
2018-03-22T09:31:18.411Z,44.30
2018-03-22T09:33:46.824Z,44.90
2018-03-22T09:36:14.349Z,44.90
2018-03-22T09:38:41.891Z,44.40
2018-03-22T09:41:10.215Z,43.60
2018-03-22T09:43:37.755Z,43.60
2018-03-22T09:46:05.299Z,43.00
2018-03-22T09:48:33.584Z,44.60
2018-03-22T09:51:01.128Z,44.40
2018-03-22T09:53:29.421Z,40.20
2018-03-22T09:55:56.954Z,40.20
2018-03-22T09:58:24.473Z,43.60
2018-03-22T10:00:52.024Z,42.70
2018-03-22T10:03:19.537Z,40.10
2018-03-22T10:05:47.820Z,39.00
2018-03-22T10:08:16.146Z,39.00
2018-03-22T10:10:43.680Z,38.90
2018-03-22T10:13:11.214Z,38.30
2018-03-22T10:15:39.498Z,42.60
2018-03-22T10:18:07.816Z,41.30
2018-03-22T10:20:36.215Z,41.30
2018-03-22T10:23:03.765Z,42.90
2018-03-22T10:25:31.284Z,42.10
2018-03-22T10:27:58.801Z,39.00
2018-03-22T10:30:26.340Z,38.60
2018-03-22T10:32:53.883Z,37.70
2018-03-22T10:35:21.432Z,37.80
2018-03-22T10:37:48.955Z,37.10
2018-03-22T10:40:17.260Z,41.00
2018-03-22T10:42:44.787Z,40.90
2018-03-22T10:45:13.102Z,42.40
2018-03-22T10:47:40.636Z,42.20
2018-03-22T10:50:08.951Z,42.00
2018-03-22T10:52:36.468Z,42.00
2018-03-22T10:55:04.748Z,38.80
2018-03-22T10:57:33.041Z,38.90
2018-03-22T11:00:00.564Z,38.90
2018-03-22T11:02:33.784Z,38.80
2018-03-22T11:05:01.320Z,41.50
2018-03-22T11:07:28.853Z,40.90
2018-03-22T11:09:56.382Z,38.10
2018-03-22T11:12:23.917Z,38.10
2018-03-22T11:14:52.224Z,40.10
2018-03-22T11:17:19.729Z,40.00
2018-03-22T11:19:47.273Z,41.00
2018-03-22T11:22:14.808Z,40.70
2018-03-22T11:24:42.355Z,39.30
2018-03-22T11:27:09.892Z,35.40
2018-03-22T11:29:37.426Z,34.20
2018-03-22T11:32:05.724Z,34.00
2018-03-22T11:34:33.280Z,34.00
2018-03-22T11:37:01.565Z,33.90
2018-03-22T11:39:29.112Z,34.00
2018-03-22T11:41:56.658Z,35.90
2018-03-22T11:44:24.942Z,33.80
2018-03-22T11:46:53.242Z,36.50
2018-03-22T11:49:20.762Z,36.50
2018-03-22T11:51:48.308Z,34.20
2018-03-22T11:54:15.849Z,35.20
2018-03-22T11:56:43.407Z,36.00
2018-03-22T11:59:10.931Z,37.00
2018-03-22T12:01:38.469Z,34.00
2018-03-22T12:04:06.793Z,30.50
2018-03-22T12:06:34.327Z,30.40
2018-03-22T12:09:01.886Z,30.90
2018-03-22T12:11:29.435Z,30.50
2018-03-22T12:13:56.974Z,31.20
2018-03-22T12:16:25.275Z,31.20
2018-03-22T12:18:52.840Z,31.20
2018-03-22T12:21:20.363Z,32.10
2018-03-22T12:23:47.907Z,32.70
2018-03-22T12:26:15.546Z,30.40
2018-03-22T12:28:43.074Z,31.00
2018-03-22T12:31:10.615Z,31.60
2018-03-22T12:33:38.918Z,32.00
2018-03-22T12:36:06.489Z,32.10
2018-03-22T12:38:34.016Z,30.40
2018-03-22T12:41:02.333Z,34.20
2018-03-22T12:43:29.883Z,34.00
2018-03-22T12:45:57.461Z,34.60
2018-03-22T12:48:24.997Z,33.80
2018-03-22T12:50:52.527Z,32.50
2018-03-22T12:53:20.832Z,30.70
2018-03-22T12:55:48.352Z,31.30
2018-03-22T12:58:15.905Z,30.60
2018-03-22T13:00:43.424Z,29.50
2018-03-22T13:03:10.972Z,30.00
2018-03-22T13:05:38.510Z,31.00
2018-03-22T13:08:06.050Z,29.40
2018-03-22T13:10:34.335Z,31.50
2018-03-22T13:13:02.628Z,30.70
2018-03-22T13:15:30.197Z,30.60
2018-03-22T13:17:57.735Z,30.00
2018-03-22T13:20:26.055Z,31.00
2018-03-22T13:22:53.592Z,31.00
2018-03-22T13:25:21.149Z,32.60
2018-03-22T13:27:48.667Z,31.90
2018-03-22T13:30:16.222Z,31.20
2018-03-22T13:32:43.745Z,30.10
2018-03-22T13:35:11.313Z,30.80
2018-03-22T13:37:38.848Z,29.30
2018-03-22T13:40:06.377Z,28.10
2018-03-22T13:42:34.686Z,28.60
2018-03-22T13:45:02.201Z,28.60
2018-03-22T13:47:29.747Z,28.90
2018-03-22T13:49:57.279Z,30.10
2018-03-22T13:52:24.817Z,29.70
2018-03-22T13:54:52.346Z,29.20
2018-03-22T13:57:20.658Z,30.70
2018-03-22T13:59:48.188Z,30.70
2018-03-22T14:02:16.479Z,31.00
2018-03-22T14:04:44.029Z,31.00
2018-03-22T14:07:12.320Z,30.10
2018-03-22T14:09:39.865Z,30.10
2018-03-22T14:12:08.142Z,31.50
2018-03-22T14:14:36.443Z,31.80
2018-03-22T14:17:03.957Z,31.70
2018-03-22T14:19:31.498Z,34.30
2018-03-22T14:21:59.025Z,33.20
2018-03-22T14:24:26.573Z,31.90
2018-03-22T14:26:54.094Z,31.70
2018-03-22T14:29:21.629Z,30.90
2018-03-22T14:31:49.171Z,29.40
2018-03-22T14:34:16.700Z,32.20
2018-03-22T14:36:44.258Z,32.50
2018-03-22T14:39:11.782Z,30.20
2018-03-22T14:41:39.326Z,30.00
2018-03-22T14:44:06.855Z,30.00
2018-03-22T14:46:34.410Z,30.80
2018-03-22T14:49:01.939Z,30.00
2018-03-22T14:51:30.216Z,30.00
2018-03-22T14:53:58.523Z,30.00
2018-03-22T14:56:26.051Z,30.00
2018-03-22T14:58:54.366Z,33.50
2018-03-22T15:01:21.887Z,33.50
2018-03-22T15:03:50.186Z,30.40
2018-03-22T15:06:17.714Z,30.30
2018-03-22T15:08:46.038Z,32.10
2018-03-22T15:11:13.572Z,32.00
2018-03-22T15:13:41.114Z,29.80
2018-03-22T15:16:09.390Z,29.70
2018-03-22T15:18:37.686Z,29.20
2018-03-22T15:21:05.213Z,29.20
2018-03-22T15:23:32.739Z,28.90
2018-03-22T15:26:00.272Z,27.40
2018-03-22T15:28:27.797Z,28.00
2018-03-22T15:30:56.099Z,28.10
2018-03-22T15:33:23.636Z,28.10
2018-03-22T15:35:51.955Z,27.70
2018-03-22T15:38:19.478Z,27.60
2018-03-22T15:40:47.772Z,25.60
2018-03-22T15:43:15.314Z,25.60
2018-03-22T15:45:43.616Z,26.90
2018-03-22T15:48:11.180Z,26.90
2018-03-22T15:50:38.720Z,24.80
2018-03-22T15:53:07.036Z,24.50
2018-03-22T15:55:34.564Z,24.50
2018-03-22T15:58:02.170Z,25.40
2018-03-22T16:00:29.700Z,26.20
2018-03-22T16:02:57.248Z,26.10
2018-03-22T16:05:24.785Z,27.20
2018-03-22T16:07:53.079Z,28.00
2018-03-22T16:10:20.604Z,28.00
2018-03-22T16:12:48.129Z,27.30
2018-03-22T16:15:15.676Z,27.00
2018-03-22T16:17:43.203Z,28.30
2018-03-22T16:20:11.496Z,29.20
2018-03-22T16:22:39.022Z,29.20
2018-03-22T16:25:07.473Z,30.50
2018-03-22T16:27:35.016Z,30.50
2018-03-22T16:30:02.536Z,31.80
2018-03-22T16:32:30.078Z,31.10
2018-03-22T16:34:57.593Z,30.00
2018-03-22T16:37:25.255Z,31.80
2018-03-22T16:39:52.763Z,33.30
2018-03-22T16:42:21.080Z,34.80
2018-03-22T16:44:48.602Z,34.80
2018-03-22T16:47:16.957Z,37.40
2018-03-22T16:49:44.465Z,37.20
2018-03-22T16:52:12.012Z,35.30
2018-03-22T16:54:39.540Z,36.30
2018-03-22T16:57:07.069Z,36.60
2018-03-22T16:59:34.613Z,37.80
2018-03-22T17:02:02.158Z,39.30
2018-03-22T17:04:29.665Z,39.30
2018-03-22T17:06:57.193Z,37.60
2018-03-22T17:09:24.733Z,37.90
2018-03-22T17:11:52.272Z,39.10
2018-03-22T17:14:20.568Z,38.60
2018-03-22T17:16:48.082Z,38.60
2018-03-22T17:19:15.610Z,39.60
2018-03-22T17:21:43.136Z,40.80
2018-03-22T17:24:10.669Z,41.20
2018-03-22T17:26:38.988Z,37.90
2018-03-22T17:29:06.508Z,37.90
2018-03-22T17:31:34.044Z,38.40
2018-03-22T17:34:01.571Z,38.70
2018-03-22T17:36:29.129Z,39.00
2018-03-22T17:38:56.657Z,38.70
2018-03-22T17:41:24.931Z,39.60
2018-03-22T17:43:53.242Z,39.50
2018-03-22T17:46:20.777Z,39.50
2018-03-22T17:48:48.314Z,38.40
2018-03-22T17:51:16.619Z,37.40
2018-03-22T17:53:44.176Z,37.90
2018-03-22T17:56:11.710Z,37.70
2018-03-22T17:58:40.048Z,39.30
2018-03-22T18:01:07.577Z,39.30
2018-03-22T18:03:35.132Z,39.10
2018-03-22T18:06:02.661Z,37.90
2018-03-22T18:08:31.005Z,37.70
2018-03-22T18:10:58.527Z,37.70
2018-03-22T18:13:26.060Z,38.00
2018-03-22T18:15:54.360Z,38.10
2018-03-22T18:18:21.911Z,38.70
2018-03-22T18:20:49.450Z,38.70
2018-03-22T18:23:16.976Z,38.50
2018-03-22T18:25:45.238Z,39.00
2018-03-22T18:28:12.780Z,40.90
2018-03-22T18:30:40.316Z,40.50
2018-03-22T18:33:08.644Z,42.60
2018-03-22T18:35:36.172Z,42.60
2018-03-22T18:38:04.849Z,41.70
2018-03-22T18:40:32.427Z,42.10
2018-03-22T18:43:00.025Z,41.60
2018-03-22T18:45:27.540Z,43.60
2018-03-22T18:47:55.115Z,43.70
2018-03-22T18:50:22.656Z,45.80
2018-03-22T18:52:50.177Z,46.40
2018-03-22T18:55:17.739Z,47.20
2018-03-22T18:57:45.254Z,46.90
2018-03-22T19:00:12.824Z,47.80
2018-03-22T19:02:41.197Z,48.60
2018-03-22T19:05:08.824Z,49.40
2018-03-22T19:07:36.347Z,50.80
2018-03-22T19:10:03.887Z,51.20
2018-03-22T19:12:32.432Z,52.80
2018-03-22T19:14:59.972Z,54.40
2018-03-22T19:17:28.293Z,57.90
2018-03-22T19:19:55.828Z,57.90
2018-03-22T19:22:23.362Z,59.20
2018-03-22T19:24:51.664Z,60.90
2018-03-22T19:27:19.219Z,60.90
2018-03-22T19:29:46.801Z,60.50
2018-03-22T19:32:14.335Z,63.30
2018-03-22T19:34:41.864Z,64.40
2018-03-22T19:37:09.427Z,64.90
2018-03-22T19:39:37.713Z,66.70
2018-03-22T19:42:06.020Z,65.60
2018-03-22T19:44:33.565Z,65.60
2018-03-22T19:47:01.090Z,65.60
2018-03-22T19:49:28.686Z,65.60
2018-03-22T19:51:56.213Z,65.50
2018-03-22T19:54:23.765Z,66.90
2018-03-22T19:56:51.292Z,67.50
2018-03-22T19:59:18.842Z,68.10
2018-03-22T20:01:46.360Z,69.10
2018-03-22T20:04:14.644Z,71.20
2018-03-22T20:06:42.939Z,71.40
2018-03-22T20:09:10.446Z,71.30
2018-03-22T20:11:37.984Z,72.60
2018-03-22T20:14:05.523Z,73.20
2018-03-22T20:16:33.050Z,75.60
2018-03-22T20:19:01.358Z,74.50
2018-03-22T20:21:28.895Z,74.50
2018-03-22T20:23:57.206Z,75.50
2018-03-22T20:26:24.737Z,75.50
2018-03-22T20:28:52.271Z,76.50
2018-03-22T20:31:19.792Z,76.00
2018-03-22T20:33:47.335Z,76.80
2018-03-22T20:36:14.853Z,77.10
2018-03-22T20:38:43.153Z,78.40
2018-03-22T20:41:10.688Z,78.50
2018-03-22T20:43:38.990Z,78.90
2018-03-22T20:46:06.513Z,78.90
2018-03-22T20:48:34.070Z,79.40
2018-03-22T20:51:01.594Z,79.80
2018-03-22T20:53:29.124Z,80.00
2018-03-22T20:55:56.665Z,80.00
2018-03-22T20:58:25.445Z,81.40
2018-03-22T21:00:53.752Z,81.20
2018-03-22T21:03:21.282Z,81.20
2018-03-22T21:05:49.588Z,81.10
2018-03-22T21:08:17.140Z,81.10
2018-03-22T21:10:44.673Z,80.90
2018-03-22T21:13:12.210Z,80.60
2018-03-22T21:15:39.744Z,80.10
2018-03-22T21:18:07.279Z,79.90
2018-03-22T21:20:34.800Z,79.70
2018-03-22T21:23:02.350Z,79.60
2018-03-22T21:25:29.900Z,80.10
2018-03-22T21:27:57.436Z,80.10
2018-03-22T21:30:24.946Z,80.50
2018-03-22T21:32:52.506Z,80.70
2018-03-22T21:35:20.790Z,80.70
2018-03-22T21:37:49.117Z,80.60
2018-03-22T21:40:16.628Z,80.60
2018-03-22T21:42:44.928Z,81.00
2018-03-22T21:45:12.508Z,81.00
2018-03-22T21:47:40.086Z,81.10
2018-03-22T21:50:07.624Z,81.80
2018-03-22T21:52:47.019Z,82.20
2018-03-22T21:55:15.340Z,82.20
2018-03-22T21:57:42.859Z,82.20
2018-03-22T22:00:11.161Z,82.30
2018-03-22T22:02:38.686Z,82.30
2018-03-22T22:05:07.011Z,82.00
2018-03-22T22:07:34.553Z,82.00
2018-03-22T22:10:02.082Z,81.90
2018-03-22T22:12:30.412Z,82.70
2018-03-22T22:14:57.976Z,82.60
2018-03-22T22:17:25.513Z,83.50
2018-03-22T22:19:53.031Z,83.60
2018-03-22T22:22:20.565Z,84.00
2018-03-22T22:24:48.102Z,85.60
2018-03-22T22:27:15.660Z,86.00
2018-03-22T22:29:43.185Z,86.10
2018-03-22T22:32:11.488Z,87.00
2018-03-22T22:34:39.042Z,87.00
2018-03-22T22:37:06.565Z,85.60
2018-03-22T22:39:34.888Z,83.90
2018-03-22T22:42:02.431Z,83.80
2018-03-22T22:44:29.967Z,83.50
2018-03-22T22:46:58.260Z,83.90
2018-03-22T22:49:25.809Z,83.90
2018-03-22T22:51:54.109Z,84.40
2018-03-22T22:54:21.665Z,84.40
2018-03-22T22:56:49.193Z,84.90
2018-03-22T22:59:17.498Z,85.50
2018-03-22T23:01:45.064Z,85.50
2018-03-22T23:04:12.599Z,85.30
2018-03-22T23:06:41.019Z,85.20
2018-03-22T23:09:08.692Z,85.20
2018-03-22T23:11:36.222Z,84.80
2018-03-22T23:14:03.754Z,85.00
2018-03-22T23:16:32.074Z,85.20
2018-03-22T23:18:59.604Z,85.20
2018-03-22T23:21:27.146Z,85.00
2018-03-22T23:23:55.453Z,85.00
2018-03-22T23:26:22.972Z,85.00
2018-03-22T23:28:50.514Z,85.20
2018-03-22T23:31:18.022Z,85.80
2018-03-22T23:33:45.565Z,86.20
2018-03-22T23:36:13.849Z,87.10
2018-03-22T23:38:41.406Z,87.00
2018-03-22T23:41:09.700Z,87.20
2018-03-22T23:43:37.243Z,87.20
2018-03-22T23:46:05.524Z,87.50
2018-03-22T23:48:33.053Z,87.40
2018-03-22T23:51:01.370Z,87.90
2018-03-22T23:53:28.902Z,87.90
2018-03-22T23:55:57.221Z,88.20
2018-03-22T23:58:24.760Z,88.20
